sensor_id;sensor_type;location;lat;lon;timestamp;pressure;altitude;pressure_sealevel;temperature;humidity
7407;BME280;3745;56.964;24.128;2024-01-30T00:01:57;102627.53;;;0.73;100.00
7407;BME280;3745;56.964;24.128;2024-01-30T00:04:23;102728.97;;;1.34;100.00
7407;BME280;3745;56.964;24.128;2024-01-30T00:06:51;102701.31;;;1.21;100.00
7407;BME280;3745;56.964;24.128;2024-01-30T00:09:18;102717.25;;;1.33;100.00
7407;BME280;3745;56.964;24.128;2024-01-30T00:11:44;102722.97;;;1.42;100.00
7407;BME280;3745;56.964;24.128;2024-01-30T00:14:10;102724.75;;;1.43;100.00
7407;BME280;3745;56.964;24.128;2024-01-30T00:16:36;102729.97;;;1.46;100.00
7407;BME280;3745;56.964;24.128;2024-01-30T00:19:02;102724.97;;;1.46;100.00
7407;BME280;3745;56.964;24.128;2024-01-30T00:21:28;102729.97;;;1.46;100.00
7407;BME280;3745;56.964;24.128;2024-01-30T00:23:53;102734.47;;;1.40;100.00
7407;BME280;3745;56.964;24.128;2024-01-30T00:26:19;102734.47;;;1.40;100.00
7407;BME280;3745;56.964;24.128;2024-01-30T00:28:46;102715.00;;;1.26;100.00
7407;BME280;3745;56.964;24.128;2024-01-30T00:31:12;102701.06;;;1.18;100.00
7407;BME280;3745;56.964;24.128;2024-01-30T00:33:41;102739.22;;;1.37;100.00
7407;BME280;3745;56.964;24.128;2024-01-30T00:36:08;102707.78;;;1.19;100.00
7407;BME280;3745;56.964;24.128;2024-01-30T00:38:33;102662.16;;;1.00;100.00
7407;BME280;3745;56.964;24.128;2024-01-30T00:40:59;102740.97;;;1.38;100.00
7407;BME280;3745;56.964;24.128;2024-01-30T00:43:25;102732.72;;;1.39;100.00
7407;BME280;3745;56.964;24.128;2024-01-30T00:45:51;102694.31;;;1.17;100.00
7407;BME280;3745;56.964;24.128;2024-01-30T00:48:19;102731.00;;;1.38;100.00
7407;BME280;3745;56.964;24.128;2024-01-30T00:50:45;102728.97;;;1.34;100.00
7407;BME280;3745;56.964;24.128;2024-01-30T00:53:13;102731.00;;;1.38;100.00
7407;BME280;3745;56.964;24.128;2024-01-30T00:55:39;102706.53;;;1.24;100.00
7407;BME280;3745;56.964;24.128;2024-01-30T00:58:04;102688.81;;;1.11;100.00
7407;BME280;3745;56.964;24.128;2024-01-30T01:00:31;102725.75;;;1.35;100.00
7407;BME280;3745;56.964;24.128;2024-01-30T01:03:01;102706.53;;;1.24;100.00
7407;BME280;3745;56.964;24.128;2024-01-30T01:05:26;102727.47;;;1.36;100.00
7407;BME280;3745;56.964;24.128;2024-01-30T01:07:52;102732.72;;;1.39;100.00
7407;BME280;3745;56.964;24.128;2024-01-30T01:10:18;102727.47;;;1.36;100.00
7407;BME280;3745;56.964;24.128;2024-01-30T01:12:44;102725.50;;;1.32;100.00
7407;BME280;3745;56.964;24.128;2024-01-30T01:15:11;102710.88;;;1.27;100.00
7407;BME280;3745;56.964;24.128;2024-01-30T01:17:38;102712.91;;;1.31;100.00
7407;BME280;3745;56.964;24.128;2024-01-30T01:20:05;102681.59;;;1.14;100.00
7407;BME280;3745;56.964;24.128;2024-01-30T01:22:32;102722.00;;;1.30;100.00
7407;BME280;3745;56.964;24.128;2024-01-30T01:24:58;102730.75;;;1.35;100.00
7407;BME280;3745;56.964;24.128;2024-01-30T01:27:24;102693.31;;;1.15;100.00
7407;BME280;3745;56.964;24.128;2024-01-30T01:29:50;102689.06;;;1.14;100.00
7407;BME280;3745;56.964;24.128;2024-01-30T01:32:16;102704.78;;;1.23;100.00
7407;BME280;3745;56.964;24.128;2024-01-30T01:34:42;102709.03;;;1.24;100.00
7407;BME280;3745;56.964;24.128;2024-01-30T01:37:10;102631.25;;;0.78;100.00
7407;BME280;3745;56.964;24.128;2024-01-30T01:39:36;102657.66;;;0.96;100.00
7407;BME280;3745;56.964;24.128;2024-01-30T01:42:04;102698.56;;;1.18;100.00
7407;BME280;3745;56.964;24.128;2024-01-30T01:44:29;102641.84;;;0.85;100.00
7407;BME280;3745;56.964;24.128;2024-01-30T01:46:56;102676.88;;;1.07;100.00
7407;BME280;3745;56.964;24.128;2024-01-30T01:49:24;102691.31;;;1.21;100.00
7407;BME280;3745;56.964;24.128;2024-01-30T01:51:51;102655.19;;;1.06;100.00
7407;BME280;3745;56.964;24.128;2024-01-30T01:54:20;102641.84;;;0.95;100.00
7407;BME280;3745;56.964;24.128;2024-01-30T01:56:46;102651.44;;;1.11;100.00
7407;BME280;3745;56.964;24.128;2024-01-30T01:59:12;102686.59;;;1.34;100.00
7407;BME280;3745;56.964;24.128;2024-01-30T02:01:38;102676.84;;;1.27;100.00
7407;BME280;3745;56.964;24.128;2024-01-30T02:04:07;102675.00;;;1.35;100.00
7407;BME280;3745;56.964;24.128;2024-01-30T02:06:33;102655.91;;;1.15;100.00
7407;BME280;3745;56.964;24.128;2024-01-30T02:08:59;102690.84;;;1.35;100.00
7407;BME280;3745;56.964;24.128;2024-01-30T02:11:25;102685.22;;;1.38;100.00
7407;BME280;3745;56.964;24.128;2024-01-30T02:13:51;102626.16;;;1.06;100.00
7407;BME280;3745;56.964;24.128;2024-01-30T02:16:16;102648.19;;;1.22;100.00
7407;BME280;3745;56.964;24.128;2024-01-30T02:18:45;102557.50;;;0.70;100.00
7407;BME280;3745;56.964;24.128;2024-01-30T02:21:15;102629.47;;;1.17;100.00
7407;BME280;3745;56.964;24.128;2024-01-30T02:23:43;102611.31;;;0.98;100.00
7407;BME280;3745;56.964;24.128;2024-01-30T02:26:10;102662.38;;;1.33;100.00
7407;BME280;3745;56.964;24.128;2024-01-30T02:28:37;102669.75;;;1.32;100.00
7407;BME280;3745;56.964;24.128;2024-01-30T02:31:02;102658.66;;;1.28;100.00
7407;BME280;3745;56.964;24.128;2024-01-30T02:33:28;102672.38;;;1.33;100.00
7407;BME280;3745;56.964;24.128;2024-01-30T02:35:54;102577.56;;;0.81;100.00
7407;BME280;3745;56.964;24.128;2024-01-30T02:38:20;102673.38;;;1.35;100.00
7407;BME280;3745;56.964;24.128;2024-01-30T02:40:46;102578.44;;;0.82;100.00
7407;BME280;3745;56.964;24.128;2024-01-30T02:43:12;102667.38;;;1.23;100.00
7407;BME280;3745;56.964;24.128;2024-01-30T02:45:38;102580.66;;;0.69;100.00
7407;BME280;3745;56.964;24.128;2024-01-30T02:48:03;102619.53;;;0.87;100.00
7407;BME280;3745;56.964;24.128;2024-01-30T02:50:29;102639.97;;;1.03;100.00
7407;BME280;3745;56.964;24.128;2024-01-30T02:52:55;102676.13;;;1.28;100.00
7407;BME280;3745;56.964;24.128;2024-01-30T02:55:20;102600.38;;;0.86;100.00
7407;BME280;3745;56.964;24.128;2024-01-30T02:57:46;102666.63;;;1.24;100.00
7407;BME280;3745;56.964;24.128;2024-01-30T03:00:12;102631.75;;;1.04;100.00
7407;BME280;3745;56.964;24.128;2024-01-30T03:02:38;102670.13;;;1.26;100.00
7407;BME280;3745;56.964;24.128;2024-01-30T03:05:05;102668.78;;;1.20;100.00
7407;BME280;3745;56.964;24.128;2024-01-30T03:07:31;102688.84;;;1.31;100.00
7407;BME280;3745;56.964;24.128;2024-01-30T03:09:56;102690.84;;;1.35;100.00
7407;BME280;3745;56.964;24.128;2024-01-30T03:12:22;102694.06;;;1.34;100.00
7407;BME280;3745;56.964;24.128;2024-01-30T03:14:48;102692.84;;;1.29;100.00
7407;BME280;3745;56.964;24.128;2024-01-30T03:17:14;102627.75;;;0.96;100.00
7407;BME280;3745;56.964;24.128;2024-01-30T03:19:40;102690.59;;;1.32;100.00
7407;BME280;3745;56.964;24.128;2024-01-30T03:22:06;102694.56;;;1.40;100.00
7407;BME280;3745;56.964;24.128;2024-01-30T03:24:31;102647.22;;;1.10;100.00
7407;BME280;3745;56.964;24.128;2024-01-30T03:26:57;102655.19;;;1.06;100.00
7407;BME280;3745;56.964;24.128;2024-01-30T03:29:22;102613.56;;;0.85;100.00
7407;BME280;3745;56.964;24.128;2024-01-30T03:31:48;102692.84;;;1.29;100.00
7407;BME280;3745;56.964;24.128;2024-01-30T03:34:13;102686.59;;;1.24;100.00
7407;BME280;3745;56.964;24.128;2024-01-30T03:36:39;102691.56;;;1.24;100.00
7407;BME280;3745;56.964;24.128;2024-01-30T03:39:05;102692.34;;;1.13;100.00
7407;BME280;3745;56.964;24.128;2024-01-30T03:41:32;102672.16;;;1.10;100.00
7407;BME280;3745;56.964;24.128;2024-01-30T03:43:58;102703.53;;;1.28;100.00
7407;BME280;3745;56.964;24.128;2024-01-30T03:46:23;102535.06;;;0.19;100.00
7407;BME280;3745;56.964;24.128;2024-01-30T03:48:49;102690.81;;;1.15;100.00
7407;BME280;3745;56.964;24.128;2024-01-30T03:51:15;102670.88;;;1.05;100.00
7407;BME280;3745;56.964;24.128;2024-01-30T03:53:44;102687.59;;;1.16;100.00
7407;BME280;3745;56.964;24.128;2024-01-30T03:56:12;102707.28;;;1.23;100.00
7407;BME280;3745;56.964;24.128;2024-01-30T03:58:39;102689.06;;;1.14;100.00
7407;BME280;3745;56.964;24.128;2024-01-30T04:01:04;102711.78;;;1.27;100.00
7407;BME280;3745;56.964;24.128;2024-01-30T04:03:30;102699.78;;;1.23;100.00
7407;BME280;3745;56.964;24.128;2024-01-30T04:05:55;102559.75;;;0.36;100.00
7407;BME280;3745;56.964;24.128;2024-01-30T04:08:21;102704.03;;;1.14;100.00
7407;BME280;3745;56.964;24.128;2024-01-30T04:10:47;102704.81;;;1.13;100.00
7407;BME280;3745;56.964;24.128;2024-01-30T04:13:13;102686.84;;;1.07;100.00
7407;BME280;3745;56.964;24.128;2024-01-30T04:15:39;102712.28;;;1.13;100.00
7407;BME280;3745;56.964;24.128;2024-01-30T04:18:05;102697.31;;;1.13;100.00
7407;BME280;3745;56.964;24.128;2024-01-30T04:20:30;102688.31;;;1.05;100.00
7407;BME280;3745;56.964;24.128;2024-01-30T04:22:56;102640.97;;;0.75;100.00
7407;BME280;3745;56.964;24.128;2024-01-30T04:25:21;102691.31;;;1.21;100.00
7407;BME280;3745;56.964;24.128;2024-01-30T04:27:47;102650.09;;;0.94;100.00
7407;BME280;3745;56.964;24.128;2024-01-30T04:30:13;102647.19;;;0.90;100.00
7407;BME280;3745;56.964;24.128;2024-01-30T04:32:39;102675.25;;;1.07;100.00
7407;BME280;3745;56.964;24.128;2024-01-30T04:35:05;102680.34;;;1.09;100.00
7407;BME280;3745;56.964;24.128;2024-01-30T04:37:31;102638.25;;;0.92;100.00
7407;BME280;3745;56.964;24.128;2024-01-30T04:39:57;102682.38;;;1.13;100.00
7407;BME280;3745;56.964;24.128;2024-01-30T04:42:24;102641.47;;;0.91;100.00
7407;BME280;3745;56.964;24.128;2024-01-30T04:44:50;102669.63;;;1.00;100.00
7407;BME280;3745;56.964;24.128;2024-01-30T04:47:16;102686.59;;;1.04;100.00
7407;BME280;3745;56.964;24.128;2024-01-30T04:49:41;102684.59;;;1.00;100.00
7407;BME280;3745;56.964;24.128;2024-01-30T04:52:08;102667.38;;;0.93;100.00
7407;BME280;3745;56.964;24.128;2024-01-30T04:54:34;102671.41;;;1.01;100.00
7407;BME280;3745;56.964;24.128;2024-01-30T04:57:00;102661.19;;;0.98;100.00
7407;BME280;3745;56.964;24.128;2024-01-30T04:59:26;102663.16;;;1.02;100.00
7407;BME280;3745;56.964;24.128;2024-01-30T05:01:52;102673.38;;;1.05;100.00
7407;BME280;3745;56.964;24.128;2024-01-30T05:04:18;102683.59;;;1.08;100.00
7407;BME280;3745;56.964;24.128;2024-01-30T05:06:43;102680.88;;;0.95;100.00
7407;BME280;3745;56.964;24.128;2024-01-30T05:09:09;102661.03;;;0.86;100.00
7407;BME280;3745;56.964;24.128;2024-01-30T05:11:39;102674.63;;;1.00;100.00
7407;BME280;3745;56.964;24.128;2024-01-30T05:14:05;102677.34;;;0.93;100.00
7407;BME280;3745;56.964;24.128;2024-01-30T05:16:31;102698.53;;;1.08;100.00
7407;BME280;3745;56.964;24.128;2024-01-30T05:18:57;102695.06;;;1.06;100.00
7407;BME280;3745;56.964;24.128;2024-01-30T05:21:22;102677.34;;;0.93;100.00
7407;BME280;3745;56.964;24.128;2024-01-30T05:23:48;102683.44;;;0.86;100.00
7407;BME280;3745;56.964;24.128;2024-01-30T05:26:14;102656.41;;;0.81;100.00
7407;BME280;3745;56.964;24.128;2024-01-30T05:28:39;102708.66;;;0.99;100.00
7407;BME280;3745;56.964;24.128;2024-01-30T05:31:05;102705.53;;;1.02;100.00
7407;BME280;3745;56.964;24.128;2024-01-30T05:33:30;102675.63;;;0.92;100.00
7407;BME280;3745;56.964;24.128;2024-01-30T05:35:56;102628.78;;;0.68;100.00
7407;BME280;3745;56.964;24.128;2024-01-30T05:38:21;102698.53;;;1.08;100.00
7407;BME280;3745;56.964;24.128;2024-01-30T05:40:47;102696.06;;;0.98;100.00
7407;BME280;3745;56.964;24.128;2024-01-30T05:43:12;102710.66;;;1.03;100.00
7407;BME280;3745;56.964;24.128;2024-01-30T05:45:38;102694.06;;;0.94;100.00
7407;BME280;3745;56.964;24.128;2024-01-30T05:48:04;102726.09;;;1.09;100.00
7407;BME280;3745;56.964;24.128;2024-01-30T05:50:30;102727.25;;;1.13;100.00
7407;BME280;3745;56.964;24.128;2024-01-30T05:52:56;102730.97;;;1.18;100.00
7407;BME280;3745;56.964;24.128;2024-01-30T05:55:22;102719.88;;;1.15;100.00
7407;BME280;3745;56.964;24.128;2024-01-30T05:57:47;102731.44;;;1.14;100.00
7407;BME280;3745;56.964;24.128;2024-01-30T06:00:14;102726.75;;;1.07;100.00
7407;BME280;3745;56.964;24.128;2024-01-30T06:02:39;102716.75;;;1.07;100.00
7407;BME280;3745;56.964;24.128;2024-01-30T06:05:05;102716.50;;;1.04;100.00
7407;BME280;3745;56.964;24.128;2024-01-30T06:07:32;102743.44;;;1.18;100.00
7407;BME280;3745;56.964;24.128;2024-01-30T06:09:57;102740.94;;;1.18;100.00
7407;BME280;3745;56.964;24.128;2024-01-30T06:12:23;102656.78;;;0.75;100.00
7407;BME280;3745;56.964;24.128;2024-01-30T06:14:48;102669.91;;;0.83;100.00
7407;BME280;3745;56.964;24.128;2024-01-30T06:17:14;102744.91;;;1.26;100.00
7407;BME280;3745;56.964;24.128;2024-01-30T06:19:40;102720.50;;;1.12;100.00
7407;BME280;3745;56.964;24.128;2024-01-30T06:22:05;102710.66;;;1.03;100.00
7407;BME280;3745;56.964;24.128;2024-01-30T06:24:31;102735.22;;;1.29;100.00
7407;BME280;3745;56.964;24.128;2024-01-30T06:26:57;102702.31;;;1.13;100.00
7407;BME280;3745;56.964;24.128;2024-01-30T06:29:22;102731.97;;;1.30;100.00
7407;BME280;3745;56.964;24.128;2024-01-30T06:31:50;102692.56;;;0.96;100.00
7407;BME280;3745;56.964;24.128;2024-01-30T06:34:15;102725.97;;;1.18;100.00
7407;BME280;3745;56.964;24.128;2024-01-30T06:36:42;102735.97;;;1.18;100.00
7407;BME280;3745;56.964;24.128;2024-01-30T06:39:08;102727.25;;;1.13;100.00
7407;BME280;3745;56.964;24.128;2024-01-30T06:41:34;102659.44;;;0.77;100.00
7407;BME280;3745;56.964;24.128;2024-01-30T06:44:02;102700.06;;;1.06;100.00
7407;BME280;3745;56.964;24.128;2024-01-30T06:46:30;102624.13;;;0.62;100.00
7407;BME280;3745;56.964;24.128;2024-01-30T06:48:56;102726.72;;;1.27;100.00
7407;BME280;3745;56.964;24.128;2024-01-30T06:51:21;102729.63;;;1.32;100.00
7407;BME280;3745;56.964;24.128;2024-01-30T06:53:47;102661.44;;;1.01;100.00
7407;BME280;3745;56.964;24.128;2024-01-30T06:56:13;102679.34;;;1.17;100.00
7407;BME280;3745;56.964;24.128;2024-01-30T06:58:38;102695.81;;;1.15;100.00
7407;BME280;3745;56.964;24.128;2024-01-30T07:01:04;102701.53;;;1.14;100.00
7407;BME280;3745;56.964;24.128;2024-01-30T07:03:32;102717.25;;;1.33;100.00
7407;BME280;3745;56.964;24.128;2024-01-30T07:05:58;102717.50;;;1.36;100.00
7407;BME280;3745;56.964;24.128;2024-01-30T07:08:24;102723.25;;;1.35;100.00
7407;BME280;3745;56.964;24.128;2024-01-30T07:10:49;102656.28;;;0.89;100.00
7407;BME280;3745;56.964;24.128;2024-01-30T07:13:15;102722.00;;;1.30;100.00
7407;BME280;3745;56.964;24.128;2024-01-30T07:15:42;102719.00;;;1.34;100.00
7407;BME280;3745;56.964;24.128;2024-01-30T07:18:08;102688.97;;;1.23;100.00
7407;BME280;3745;56.964;24.128;2024-01-30T07:20:35;102676.84;;;1.27;100.00
7407;BME280;3745;56.964;24.128;2024-01-30T07:23:01;102686.19;;;1.50;100.00
7407;BME280;3745;56.964;24.128;2024-01-30T07:25:27;102683.31;;;1.45;100.00
7407;BME280;3745;56.964;24.128;2024-01-30T07:27:55;102662.66;;;1.16;100.00
7407;BME280;3745;56.964;24.128;2024-01-30T07:30:21;102658.41;;;1.25;100.00
7407;BME280;3745;56.964;24.128;2024-01-30T07:32:46;102685.31;;;1.49;100.00
7407;BME280;3745;56.964;24.128;2024-01-30T07:35:13;102667.59;;;1.56;100.00
7407;BME280;3745;56.964;24.128;2024-01-30T07:37:39;102637.41;;;1.53;100.00
7407;BME280;3745;56.964;24.128;2024-01-30T07:40:05;102638.75;;;1.60;100.00
7407;BME280;3745;56.964;24.128;2024-01-30T07:42:32;102664.72;;;1.62;100.00
7407;BME280;3745;56.964;24.128;2024-01-30T07:44:57;102690.00;;;1.67;100.00
7407;BME280;3745;56.964;24.128;2024-01-30T07:47:23;102696.03;;;1.58;100.00
7407;BME280;3745;56.964;24.128;2024-01-30T07:49:48;102700.53;;;1.52;100.00
7407;BME280;3745;56.964;24.128;2024-01-30T07:52:14;102695.53;;;1.52;100.00
7407;BME280;3745;56.964;24.128;2024-01-30T07:54:40;102674.78;;;1.63;100.00
7407;BME280;3745;56.964;24.128;2024-01-30T07:57:05;102580.41;;;1.06;100.00
7407;BME280;3745;56.964;24.128;2024-01-30T07:59:31;102691.50;;;1.75;100.00
7407;BME280;3745;56.964;24.128;2024-01-30T08:01:57;102688.53;;;1.69;100.00
7407;BME280;3745;56.964;24.128;2024-01-30T08:04:25;102696.50;;;1.75;100.00
7407;BME280;3745;56.964;24.128;2024-01-30T08:06:51;102686.72;;;1.88;100.00
7407;BME280;3745;56.964;24.128;2024-01-30T08:09:16;102704.16;;;1.98;100.00
7407;BME280;3745;56.964;24.128;2024-01-30T08:11:42;102695.53;;;2.04;100.00
7407;BME280;3745;56.964;24.128;2024-01-30T08:14:07;102703.16;;;2.06;100.00
7407;BME280;3745;56.964;24.128;2024-01-30T08:16:33;102698.16;;;2.06;100.00
7407;BME280;3745;56.964;24.128;2024-01-30T08:18:59;102683.91;;;2.05;100.00
7407;BME280;3745;56.964;24.128;2024-01-30T08:21:24;102687.00;;;2.12;100.00
7407;BME280;3745;56.964;24.128;2024-01-30T08:23:50;102624.38;;;1.78;100.00
7407;BME280;3745;56.964;24.128;2024-01-30T08:26:16;102701.94;;;2.23;100.00
7407;BME280;3745;56.964;24.128;2024-01-30T08:28:41;102687.38;;;2.17;100.00
7407;BME280;3745;56.964;24.128;2024-01-30T08:31:07;102689.81;;;2.27;100.00
7407;BME280;3745;56.964;24.128;2024-01-30T08:33:32;102673.13;;;2.16;100.00
7407;BME280;3745;56.964;24.128;2024-01-30T08:35:59;102678.72;;;2.24;100.00
7407;BME280;3745;56.964;24.128;2024-01-30T08:38:25;102671.91;;;2.11;100.00
7407;BME280;3745;56.964;24.128;2024-01-30T08:40:51;102698.59;;;2.44;100.00
7407;BME280;3745;56.964;24.128;2024-01-30T08:43:16;102696.69;;;2.51;100.00
7407;BME280;3745;56.964;24.128;2024-01-30T08:45:42;102644.16;;;2.18;100.00
7407;BME280;3745;56.964;24.128;2024-01-30T08:48:07;102682.72;;;2.43;100.00
7407;BME280;3745;56.964;24.128;2024-01-30T08:50:33;102623.47;;;2.09;100.00
7407;BME280;3745;56.964;24.128;2024-01-30T08:53:00;102699.13;;;2.61;100.00
7407;BME280;3745;56.964;24.128;2024-01-30T08:55:25;102707.66;;;2.53;100.00
7407;BME280;3745;56.964;24.128;2024-01-30T08:57:51;102667.03;;;2.34;100.00
7407;BME280;3745;56.964;24.128;2024-01-30T09:00:17;102689.69;;;2.47;100.00
7407;BME280;3745;56.964;24.128;2024-01-30T09:02:45;102688.38;;;2.41;100.00
7407;BME280;3745;56.964;24.128;2024-01-30T09:05:15;102670.31;;;2.33;100.00
7407;BME280;3745;56.964;24.128;2024-01-30T09:07:41;102676.50;;;2.38;100.00
7407;BME280;3745;56.964;24.128;2024-01-30T09:10:08;102680.13;;;2.63;100.00
7407;BME280;3745;56.964;24.128;2024-01-30T09:12:34;102669.38;;;2.64;100.00
7407;BME280;3745;56.964;24.128;2024-01-30T09:15:01;102681.31;;;2.68;100.00
7407;BME280;3745;56.964;24.128;2024-01-30T09:17:26;102666.34;;;2.68;100.00
7407;BME280;3745;56.964;24.128;2024-01-30T09:19:53;102667.00;;;2.78;100.00
7407;BME280;3745;56.964;24.128;2024-01-30T09:22:25;102663.03;;;2.80;100.00
7407;BME280;3745;56.964;24.128;2024-01-30T09:24:51;102563.19;;;2.26;100.00
7407;BME280;3745;56.964;24.128;2024-01-30T09:27:18;102653.78;;;2.79;100.00
7407;BME280;3745;56.964;24.128;2024-01-30T09:29:44;102665.75;;;2.83;100.00
7407;BME280;3745;56.964;24.128;2024-01-30T09:32:09;102644.63;;;2.67;100.00
7407;BME280;3745;56.964;24.128;2024-01-30T09:34:35;102675.53;;;2.80;100.00
7407;BME280;3745;56.964;24.128;2024-01-30T09:37:01;102629.16;;;2.61;100.00
7407;BME280;3745;56.964;24.128;2024-01-30T09:39:26;102644.84;;;2.70;100.00
7407;BME280;3745;56.964;24.128;2024-01-30T09:42:05;102612.19;;;2.57;100.00
7407;BME280;3745;56.964;24.128;2024-01-30T09:44:35;102647.59;;;2.85;100.00
7407;BME280;3745;56.964;24.128;2024-01-30T09:47:03;102648.47;;;2.86;100.00
7407;BME280;3745;56.964;24.128;2024-01-30T09:49:34;102647.66;;;2.75;100.00
7407;BME280;3745;56.964;24.128;2024-01-30T09:52:02;102645.28;;;2.77;100.00
7407;BME280;3745;56.964;24.128;2024-01-30T09:54:32;102630.06;;;2.73;100.00
7407;BME280;3745;56.964;24.128;2024-01-30T09:56:58;102648.56;;;2.87;100.00
7407;BME280;3745;56.964;24.128;2024-01-30T09:59:24;102637.69;;;2.87;100.00
7407;BME280;3745;56.964;24.128;2024-01-30T10:01:53;102592.94;;;2.56;100.00
7407;BME280;3745;56.964;24.128;2024-01-30T10:04:19;102608.75;;;2.67;100.00
7407;BME280;3745;56.964;24.128;2024-01-30T10:06:46;102634.44;;;2.88;100.00
7407;BME280;3745;56.964;24.128;2024-01-30T10:09:12;102590.22;;;2.53;100.00
7407;BME280;3745;56.964;24.128;2024-01-30T10:11:39;102595.91;;;2.62;100.00
7407;BME280;3745;56.964;24.128;2024-01-30T10:14:04;102632.69;;;2.87;100.00
7407;BME280;3745;56.964;24.128;2024-01-30T10:16:36;102644.69;;;2.91;100.00
7407;BME280;3745;56.964;24.128;2024-01-30T10:19:02;102644.69;;;2.91;100.00
7407;BME280;3745;56.964;24.128;2024-01-30T10:21:29;102636.19;;;2.89;100.00
7407;BME280;3745;56.964;24.128;2024-01-30T10:23:55;102574.41;;;2.64;100.00
7407;BME280;3745;56.964;24.128;2024-01-30T10:26:21;102639.81;;;3.04;100.00
7407;BME280;3745;56.964;24.128;2024-01-30T10:28:48;102637.75;;;3.10;100.00
7407;BME280;3745;56.964;24.128;2024-01-30T10:31:18;102610.13;;;2.97;100.00
7407;BME280;3745;56.964;24.128;2024-01-30T10:33:46;102639.72;;;3.14;100.00
7407;BME280;3745;56.964;24.128;2024-01-30T10:36:13;102612.53;;;3.07;100.00
7407;BME280;3745;56.964;24.128;2024-01-30T10:38:43;102524.19;;;2.61;100.00
7407;BME280;3745;56.964;24.128;2024-01-30T10:41:12;102623.84;;;3.25;100.00
7407;BME280;3745;56.964;24.128;2024-01-30T10:43:41;102632.56;;;3.30;100.00
7407;BME280;3745;56.964;24.128;2024-01-30T10:46:18;102571.41;;;3.03;100.00
7407;BME280;3745;56.964;24.128;2024-01-30T10:48:56;102581.22;;;3.12;100.00
7407;BME280;3745;56.964;24.128;2024-01-30T10:51:24;102618.41;;;3.31;100.00
7407;BME280;3745;56.964;24.128;2024-01-30T10:53:52;102569.88;;;2.94;100.00
7407;BME280;3745;56.964;24.128;2024-01-30T10:56:20;102564.78;;;2.92;100.00
7407;BME280;3745;56.964;24.128;2024-01-30T10:58:50;102604.69;;;3.14;100.00
7407;BME280;3745;56.964;24.128;2024-01-30T11:01:21;102609.91;;;3.17;100.00
7407;BME280;3745;56.964;24.128;2024-01-30T11:03:51;102603.41;;;3.19;100.00
7407;BME280;3745;56.964;24.128;2024-01-30T11:06:18;102595.47;;;3.13;100.00
7407;BME280;3745;56.964;24.128;2024-01-30T11:09:00;102531.19;;;2.89;100.00
7407;BME280;3745;56.964;24.128;2024-01-30T11:11:26;102396.78;;;2.05;100.00
7407;BME280;3745;56.964;24.128;2024-01-30T11:13:52;102571.94;;;3.11;100.00
7407;BME280;3745;56.964;24.128;2024-01-30T11:16:17;102616.91;;;3.44;100.00
7407;BME280;3745;56.964;24.128;2024-01-30T11:18:50;102619.72;;;3.60;100.00
7407;BME280;3745;56.964;24.128;2024-01-30T11:21:16;102540.53;;;3.14;100.00
7407;BME280;3745;56.964;24.128;2024-01-30T11:23:42;102625.38;;;3.69;100.00
7407;BME280;3745;56.964;24.128;2024-01-30T11:26:10;102617.31;;;3.73;100.00
7407;BME280;3745;56.964;24.128;2024-01-30T11:28:38;102500.31;;;3.00;100.00
7407;BME280;3745;56.964;24.128;2024-01-30T11:31:06;102607.63;;;3.66;100.00
7407;BME280;3745;56.964;24.128;2024-01-30T11:33:32;102565.31;;;3.46;100.00
7407;BME280;3745;56.964;24.128;2024-01-30T11:35:59;102577.53;;;3.53;100.00
7407;BME280;3745;56.964;24.128;2024-01-30T11:38:26;102594.03;;;3.74;100.00
7407;BME280;3745;56.964;24.128;2024-01-30T11:40:54;102571.94;;;3.57;100.00
7407;BME280;3745;56.964;24.128;2024-01-30T11:43:23;102602.28;;;3.73;100.00
7407;BME280;3745;56.964;24.128;2024-01-30T11:45:49;102605.34;;;3.69;100.00
7407;BME280;3745;56.964;24.128;2024-01-30T11:48:16;102610.56;;;3.72;100.00
7407;BME280;3745;56.964;24.128;2024-01-30T11:50:41;102537.69;;;3.33;100.00
7407;BME280;3745;56.964;24.128;2024-01-30T11:53:07;102586.84;;;3.67;100.00
7407;BME280;3745;56.964;24.128;2024-01-30T11:55:33;102544.63;;;3.60;100.00
7407;BME280;3745;56.964;24.128;2024-01-30T11:58:01;102588.34;;;3.89;100.00
7407;BME280;3745;56.964;24.128;2024-01-30T12:00:27;102588.50;;;4.03;100.00
7407;BME280;3745;56.964;24.128;2024-01-30T12:02:55;102589.78;;;4.10;100.00
7407;BME280;3745;56.964;24.128;2024-01-30T12:05:28;102585.00;;;4.13;100.00
7407;BME280;3745;56.964;24.128;2024-01-30T12:07:53;102543.66;;;3.95;100.00
7407;BME280;3745;56.964;24.128;2024-01-30T12:10:19;102551.78;;;3.79;100.00
7407;BME280;3745;56.964;24.128;2024-01-30T12:12:50;102526.25;;;3.60;100.00
7407;BME280;3745;56.964;24.128;2024-01-30T12:15:16;102559.41;;;3.80;100.00
7407;BME280;3745;56.964;24.128;2024-01-30T12:17:42;102586.66;;;4.01;100.00
7407;BME280;3745;56.964;24.128;2024-01-30T12:22:37;102548.19;;;3.75;100.00
7407;BME280;3745;56.964;24.128;2024-01-30T12:25:08;102570.47;;;3.96;100.00
7407;BME280;3745;56.964;24.128;2024-01-30T12:27:35;102565.91;;;3.78;100.00
7407;BME280;3745;56.964;24.128;2024-01-30T12:30:05;102571.13;;;3.81;100.00
7407;BME280;3745;56.964;24.128;2024-01-30T12:32:30;102459.41;;;3.11;100.00
7407;BME280;3745;56.964;24.128;2024-01-30T12:34:56;102537.06;;;3.47;100.00
7407;BME280;3745;56.964;24.128;2024-01-30T12:37:22;102470.94;;;3.09;100.00
7407;BME280;3745;56.964;24.128;2024-01-30T12:39:51;102543.13;;;3.62;100.00
7407;BME280;3745;56.964;24.128;2024-01-30T12:42:19;102486.16;;;3.35;100.00
7407;BME280;3745;56.964;24.128;2024-01-30T12:44:46;102535.03;;;3.66;100.00
7407;BME280;3745;56.964;24.128;2024-01-30T12:47:12;102530.22;;;3.69;100.00
7407;BME280;3745;56.964;24.128;2024-01-30T12:49:37;102529.34;;;3.80;100.00
7407;BME280;3745;56.964;24.128;2024-01-30T12:52:03;102488.81;;;3.61;100.00
7407;BME280;3745;56.964;24.128;2024-01-30T12:54:29;102533.03;;;3.86;100.00
7407;BME280;3745;56.964;24.128;2024-01-30T12:56:54;102533.22;;;3.89;100.00
7407;BME280;3745;56.964;24.128;2024-01-30T12:59:21;102501.09;;;3.58;100.00